Time;durP1;ratioP1;P1;durP2;ratioP2;P2;SDS_P1;SDS_P2;PMS_P1;PMS_P2;Temp;Humidity;BMP_temperature;BMP_pressure;BME280_temperature;BME280_humidity;BME280_pressure;Samples;Min_cycle;Max_cycle;Signal;HPM_P1;HPM_P2
2023/05/16 00:00:18;;;;;;;3.97;3.58;;;9.80;99.90;;;;;;5043820;28;20068;-77
2023/05/16 00:02:44;;;;;;;5.10;3.97;;;9.80;99.90;;;;;;5046717;28;20037;-76
2023/05/16 00:05:13;;;;;;;4.05;3.60;;;9.80;99.90;;;;;;5047838;28;20026;-77
2023/05/16 00:07:41;;;;;;;5.38;3.85;;;9.90;99.90;;;;;;5048110;28;20026;-77
2023/05/16 00:10:07;;;;;;;5.75;3.70;;;9.90;99.90;;;;;;5048235;28;20045;-77
2023/05/16 00:12:35;;;;;;;4.82;3.70;;;9.90;99.90;;;;;;5046962;28;20477;-77
2023/05/16 00:15:01;;;;;;;4.20;3.80;;;10.00;99.90;;;;;;5029382;28;20393;-76
2023/05/16 00:17:27;;;;;;;3.58;3.17;;;10.00;99.90;;;;;;5046999;28;20041;-77
2023/05/16 00:19:57;;;;;;;5.38;3.80;;;10.00;99.90;;;;;;5026928;28;20042;-76
2023/05/16 00:22:23;;;;;;;3.58;3.28;;;10.00;99.90;;;;;;5047419;28;20025;-76
2023/05/16 00:24:49;;;;;;;5.70;3.53;;;10.00;99.90;;;;;;5046848;28;20068;-77
2023/05/16 00:27:14;;;;;;;5.55;3.38;;;10.00;99.90;;;;;;5045153;28;20029;-77
2023/05/16 00:29:40;;;;;;;4.50;3.30;;;10.00;99.90;;;;;;5044814;28;20041;-76
2023/05/16 00:32:07;;;;;;;6.80;3.55;;;10.00;99.90;;;;;;5046814;28;20084;-77
2023/05/16 00:34:33;;;;;;;4.00;3.63;;;10.00;99.90;;;;;;5044592;28;20064;-77
2023/05/16 00:36:59;;;;;;;3.53;3.17;;;10.00;99.90;;;;;;5028837;28;20064;-76
2023/05/16 00:39:25;;;;;;;4.68;3.35;;;10.00;99.90;;;;;;5047739;28;20046;-76
2023/05/16 00:41:51;;;;;;;9.27;3.55;;;9.90;99.90;;;;;;5029143;28;20067;-77
2023/05/16 00:44:16;;;;;;;3.42;3.13;;;9.90;99.90;;;;;;5046750;28;20041;-77
2023/05/16 00:46:42;;;;;;;4.20;3.00;;;10.00;99.90;;;;;;5047251;28;20033;-76
2023/05/16 00:49:08;;;;;;;4.40;3.38;;;10.00;99.90;;;;;;5046966;28;20072;-77
2023/05/16 00:51:35;;;;;;;7.30;3.40;;;10.00;99.90;;;;;;5047127;28;20044;-77
2023/05/16 00:54:02;;;;;;;3.40;2.80;;;10.00;99.90;;;;;;5027601;28;20054;-76
2023/05/16 00:56:28;;;;;;;4.95;3.20;;;10.00;99.90;;;;;;5044341;28;20029;-77
2023/05/16 00:58:53;;;;;;;5.32;3.33;;;10.00;99.90;;;;;;5043235;28;20052;-77
2023/05/16 01:01:22;;;;;;;3.55;3.25;;;10.00;99.90;;;;;;5043375;28;20057;-79
2023/05/16 01:03:48;;;;;;;3.55;3.25;;;10.00;99.90;;;;;;5046025;28;20044;-77
2023/05/16 01:06:14;;;;;;;3.88;3.35;;;10.00;99.90;;;;;;5047148;28;20049;-77
2023/05/16 01:08:40;;;;;;;10.02;3.22;;;10.10;99.90;;;;;;5046348;28;20034;-77
2023/05/16 01:11:43;;;;;;;3.67;3.10;;;10.10;99.90;;;;;;5044701;28;20067;-77
2023/05/16 01:14:30;;;;;;;4.00;3.13;;;10.10;99.90;;;;;;4999546;28;20038;-77
2023/05/16 01:17:25;;;;;;;3.35;2.97;;;10.10;99.90;;;;;;5026677;28;20049;-77
2023/05/16 01:20:07;;;;;;;4.15;2.80;;;10.20;99.90;;;;;;5046545;28;20065;-77
2023/05/16 01:22:47;;;;;;;3.30;3.00;;;10.10;99.90;;;;;;5046567;28;20481;-77
2023/05/16 01:25:47;;;;;;;3.10;2.75;;;10.20;99.90;;;;;;5029553;28;20037;-77
2023/05/16 01:28:16;;;;;;;4.28;2.80;;;10.20;99.90;;;;;;5044749;28;20043;-77
2023/05/16 01:30:42;;;;;;;;;;;10.20;99.90;;;;;;5044115;28;20052;-77
2023/05/16 01:33:08;;;;;;;3.05;2.67;;;10.20;99.90;;;;;;5041087;28;19909;-77
2023/05/16 01:35:58;;;;;;;7.80;3.28;;;10.20;99.90;;;;;;5043136;28;20026;-79
2023/05/16 01:38:29;;;;;;;2.90;2.65;;;10.10;99.90;;;;;;5042766;28;20026;-77
2023/05/16 01:41:29;;;;;;;4.57;2.83;;;10.10;99.90;;;;;;5026494;28;20049;-77
2023/05/16 01:44:01;;;;;;;3.28;2.97;;;10.10;99.90;;;;;;5024190;28;20037;-76
2023/05/16 01:46:32;;;;;;;4.97;2.65;;;10.10;99.90;;;;;;5027662;28;20034;-77
2023/05/16 01:49:19;;;;;;;6.38;3.30;;;10.10;99.90;;;;;;5044557;28;20033;-77
2023/05/16 01:51:50;;;;;;;4.43;3.88;;;10.10;99.90;;;;;;5025997;28;20044;-77
2023/05/16 01:54:19;;;;;;;6.38;2.83;;;10.10;99.90;;;;;;5044454;28;20033;-77
2023/05/16 01:56:54;;;;;;;4.13;2.63;;;10.10;99.90;;;;;;5043460;28;20029;-76
2023/05/16 01:59:21;;;;;;;3.22;2.95;;;10.10;99.90;;;;;;5043431;28;20056;-77
2023/05/16 02:01:47;;;;;;;3.40;3.00;;;10.10;99.90;;;;;;5046784;28;20075;-76
2023/05/16 02:04:14;;;;;;;5.88;3.33;;;10.10;99.90;;;;;;5043698;28;20072;-77
2023/05/16 02:06:40;;;;;;;3.10;2.53;;;10.10;99.90;;;;;;5025435;28;20037;-77
2023/05/16 02:09:07;;;;;;;3.33;3.05;;;10.10;99.90;;;;;;5044916;28;20551;-77
2023/05/16 02:11:32;;;;;;;3.42;2.90;;;10.10;99.90;;;;;;5026258;28;20112;-77
2023/05/16 02:13:58;;;;;;;3.45;2.92;;;10.10;99.90;;;;;;5040746;28;20493;-77
2023/05/16 02:16:24;;;;;;;4.18;2.75;;;10.10;99.90;;;;;;5041325;28;20469;-77
2023/05/16 02:18:49;;;;;;;2.88;2.63;;;10.10;99.90;;;;;;5040908;28;20112;-76
2023/05/16 02:21:15;;;;;;;4.85;2.58;;;10.10;99.90;;;;;;5041212;28;20033;-76
2023/05/16 02:23:41;;;;;;;3.20;2.80;;;10.10;99.90;;;;;;5040238;28;20472;-77
2023/05/16 02:26:06;;;;;;;5.35;3.10;;;10.20;99.90;;;;;;5023511;28;20029;-77
2023/05/16 02:28:32;;;;;;;8.10;4.45;;;10.20;99.90;;;;;;5024116;28;20045;-77
2023/05/16 02:30:59;;;;;;;3.00;2.70;;;10.20;99.90;;;;;;5044334;28;20034;-77
2023/05/16 02:33:28;;;;;;;3.20;2.80;;;10.20;99.90;;;;;;5043257;28;20129;-76
2023/05/16 02:35:54;;;;;;;2.80;2.60;;;10.20;99.90;;;;;;5042833;28;20033;-77
2023/05/16 02:38:20;;;;;;;3.25;2.95;;;10.20;99.90;;;;;;5042531;28;20035;-77
2023/05/16 02:40:47;;;;;;;2.85;2.65;;;10.20;99.90;;;;;;5042771;28;20041;-77
2023/05/16 02:43:13;;;;;;;4.55;2.95;;;10.20;99.90;;;;;;5044005;28;20033;-77
2023/05/16 02:45:38;;;;;;;6.25;2.60;;;10.30;99.90;;;;;;5044590;28;20108;-77
2023/05/16 02:48:04;;;;;;;3.15;2.85;;;10.20;99.90;;;;;;5044110;28;20484;-77
2023/05/16 02:50:30;;;;;;;4.07;3.15;;;10.30;99.90;;;;;;5043238;28;20064;-77
2023/05/16 02:52:58;;;;;;;3.13;2.42;;;10.20;99.90;;;;;;5026824;28;20499;-76
2023/05/16 02:55:24;;;;;;;4.07;3.00;;;;;;;;;;5044243;28;20029;-77
2023/05/16 02:57:50;;;;;;;5.10;3.00;;;10.30;99.90;;;;;;5026357;28;20034;-77
2023/05/16 03:00:17;;;;;;;5.22;2.95;;;10.30;99.90;;;;;;5026191;28;20037;-77
2023/05/16 03:02:43;;;;;;;3.55;2.60;;;10.30;99.90;;;;;;5043171;28;20033;-76
2023/05/16 03:05:10;;;;;;;3.15;2.85;;;10.40;99.90;;;;;;5040975;28;20465;-77
2023/05/16 03:07:37;;;;;;;2.90;2.60;;;10.40;99.90;;;;;;5022861;28;20401;-77
2023/05/16 03:10:03;;;;;;;3.13;2.75;;;10.40;99.90;;;;;;5037969;28;20053;-77
2023/05/16 03:12:28;;;;;;;3.17;2.88;;;10.50;99.90;;;;;;5038646;28;20053;-76
2023/05/16 03:14:54;;;;;;;2.80;2.60;;;10.50;99.90;;;;;;5022144;28;20044;-77
2023/05/16 03:17:20;;;;;;;3.33;2.33;;;10.50;99.90;;;;;;5041045;28;20053;-76
2023/05/16 03:19:45;;;;;;;3.90;2.20;;;10.50;99.90;;;;;;5041379;28;20037;-77
2023/05/16 03:22:12;;;;;;;2.63;2.22;;;10.50;99.90;;;;;;5040265;28;20041;-77
2023/05/16 03:24:37;;;;;;;2.80;2.60;;;10.50;99.90;;;;;;5040074;28;20061;-76
2023/05/16 03:27:03;;;;;;;3.22;2.92;;;10.50;99.90;;;;;;5021304;28;20052;-77
2023/05/16 03:29:29;;;;;;;4.43;2.50;;;10.60;99.90;;;;;;5038938;28;20104;-77
2023/05/16 03:31:55;;;;;;;5.88;2.63;;;10.60;99.90;;;;;;5037962;28;20037;-76
2023/05/16 03:34:21;;;;;;;2.45;2.25;;;10.60;99.90;;;;;;5038409;28;20120;-77
2023/05/16 03:36:51;;;;;;;5.80;2.47;;;10.60;99.90;;;;;;5022310;28;20444;-76
2023/05/16 03:39:17;;;;;;;4.38;2.55;;;10.60;99.90;;;;;;5039152;28;20042;-77
2023/05/16 03:41:43;;;;;;;5.47;2.42;;;10.70;99.90;;;;;;5040622;28;20047;-81
2023/05/16 03:44:08;;;;;;;4.93;2.53;;;10.70;99.90;;;;;;5040722;28;20033;-77
2023/05/16 03:46:35;;;;;;;2.60;2.40;;;10.70;99.90;;;;;;5040645;28;20442;-77
2023/05/16 03:49:01;;;;;;;3.08;2.25;;;10.80;99.90;;;;;;5038147;28;20037;-77
2023/05/16 03:51:27;;;;;;;4.03;3.13;;;10.70;99.90;;;;;;5020271;28;20473;-77
2023/05/16 03:53:53;;;;;;;3.65;2.50;;;10.70;99.90;;;;;;5037559;28;20384;-77
2023/05/16 03:56:20;;;;;;;6.22;3.20;;;10.80;99.90;;;;;;5037871;28;20033;-77
2023/05/16 03:58:46;;;;;;;12.07;2.88;;;10.80;99.90;;;;;;5037362;28;20053;-77
2023/05/16 04:01:12;;;;;;;2.88;2.42;;;10.80;99.90;;;;;;5020217;28;20440;-77
2023/05/16 04:03:38;;;;;;;5.90;2.67;;;10.90;99.90;;;;;;5019485;28;20124;-77
2023/05/16 04:06:04;;;;;;;2.50;2.22;;;10.90;99.90;;;;;;5019097;28;20030;-77
2023/05/16 04:08:30;;;;;;;4.03;2.42;;;11.00;99.90;;;;;;5036686;28;20412;-77
2023/05/16 04:10:56;;;;;;;4.35;2.47;;;11.00;99.90;;;;;;5036250;28;20388;-76
2023/05/16 04:13:21;;;;;;;2.30;2.17;;;11.10;99.90;;;;;;5036770;28;20112;-76
2023/05/16 04:15:47;;;;;;;5.28;2.47;;;11.20;99.90;;;;;;5036912;28;20034;-76
2023/05/16 04:18:13;;;;;;;6.50;2.65;;;11.20;99.90;;;;;;5036566;28;20034;-77
2023/05/16 04:20:40;;;;;;;4.35;2.80;;;11.30;99.90;;;;;;5036432;28;20112;-76
2023/05/16 04:23:06;;;;;;;3.03;2.22;;;11.30;99.90;;;;;;5036459;28;20037;-76
2023/05/16 04:25:32;;;;;;;6.93;2.22;;;11.40;99.90;;;;;;5036243;28;20052;-76
2023/05/16 04:27:57;;;;;;;3.17;2.50;;;11.40;99.90;;;;;;5018068;28;20381;-76
2023/05/16 04:30:23;;;;;;;4.88;2.85;;;11.50;99.90;;;;;;5018405;28;20047;-76
2023/05/16 04:32:49;;;;;;;8.70;2.95;;;11.60;99.90;;;;;;5036278;28;20061;-77
2023/05/16 04:35:14;;;;;;;6.47;2.60;;;11.60;99.90;;;;;;5036782;28;20488;-77
2023/05/16 04:37:41;;;;;;;3.80;2.45;;;11.70;99.90;;;;;;5036667;28;20065;-76
2023/05/16 04:40:08;;;;;;;2.58;2.38;;;11.70;99.90;;;;;;5035824;28;20040;-76
2023/05/16 04:42:34;;;;;;;2.78;2.10;;;11.80;99.90;;;;;;5036133;28;20096;-76
2023/05/16 04:45:00;;;;;;;2.85;2.30;;;11.90;99.90;;;;;;5035849;28;20029;-77
2023/05/16 04:47:25;;;;;;;2.47;2.30;;;11.90;99.90;;;;;;5035969;28;20030;-76
2023/05/16 04:49:51;;;;;;;3.33;3.03;;;12.00;99.90;;;;;;5035700;28;20477;-76
2023/05/16 04:52:17;;;;;;;3.50;2.67;;;12.10;99.90;;;;;;5035664;28;20037;-76
2023/05/16 04:54:43;;;;;;;2.55;2.40;;;12.20;99.90;;;;;;5035927;28;20045;-76
2023/05/16 04:57:08;;;;;;;3.78;2.50;;;12.30;99.90;;;;;;5035596;28;20041;-76
2023/05/16 04:59:34;;;;;;;2.80;2.47;;;12.40;99.90;;;;;;5035642;28;20060;-76
2023/05/16 05:01:59;;;;;;;2.83;2.40;;;12.50;99.90;;;;;;5035724;28;20377;-75
2023/05/16 05:04:25;;;;;;;4.43;2.70;;;12.60;99.90;;;;;;5035401;28;20112;-76
2023/05/16 05:06:51;;;;;;;5.13;2.50;;;12.60;99.90;;;;;;5017637;28;20038;-76
2023/05/16 05:09:16;;;;;;;2.97;2.67;;;12.70;99.90;;;;;;5035308;28;20044;-75
2023/05/16 05:11:42;;;;;;;6.07;2.70;;;12.80;99.90;;;;;;5035534;28;20049;-75
2023/05/16 05:14:07;;;;;;;5.88;2.90;;;12.90;99.90;;;;;;5035340;28;20045;-76
2023/05/16 05:16:33;;;;;;;3.40;2.50;;;13.00;99.90;;;;;;5035609;28;20041;-76
2023/05/16 05:18:59;;;;;;;3.75;2.90;;;13.00;99.90;;;;;;5035098;28;20119;-76
2023/05/16 05:21:25;;;;;;;6.93;3.65;;;13.10;99.90;;;;;;5017197;28;20052;-76
2023/05/16 05:23:51;;;;;;;3.35;2.70;;;13.20;99.90;;;;;;5035050;28;20038;-76
2023/05/16 05:26:17;;;;;;;2.67;2.25;;;13.20;99.90;;;;;;5035034;28;20033;-75
2023/05/16 05:28:42;;;;;;;4.95;2.40;;;13.30;99.90;;;;;;5035218;28;20541;-76
2023/05/16 05:31:08;;;;;;;3.58;2.17;;;13.40;99.90;;;;;;5035168;28;20044;-76
2023/05/16 05:33:33;;;;;;;3.20;2.58;;;13.50;99.90;;;;;;5035387;28;20083;-76
2023/05/16 05:35:59;;;;;;;3.90;2.20;;;13.60;99.90;;;;;;5035210;28;20091;-75
2023/05/16 05:38:25;;;;;;;4.28;2.63;;;13.70;99.90;;;;;;5034804;28;20037;-76
2023/05/16 05:40:51;;;;;;;4.38;2.08;;;13.80;99.90;;;;;;5034033;28;20120;-76
2023/05/16 05:43:17;;;;;;;3.53;2.00;;;13.80;99.90;;;;;;5034644;28;20124;-75
2023/05/16 05:45:43;;;;;;;2.90;1.98;;;13.90;99.90;;;;;;5034972;28;20528;-76
2023/05/16 05:48:09;;;;;;;2.92;2.33;;;13.80;99.90;;;;;;5016832;28;20041;-75
2023/05/16 05:50:35;;;;;;;2.85;2.63;;;13.90;99.90;;;;;;5034855;28;20033;-76
2023/05/16 05:53:01;;;;;;;3.33;2.00;;;13.90;99.90;;;;;;5034526;28;20029;-76
2023/05/16 05:55:27;;;;;;;3.70;2.30;;;14.00;99.90;;;;;;5034170;28;20044;-75
2023/05/16 05:57:52;;;;;;;3.53;2.40;;;14.10;99.90;;;;;;5034191;28;20072;-75
2023/05/16 06:00:18;;;;;;;3.08;1.88;;;14.20;99.90;;;;;;5034261;28;20072;-75
2023/05/16 06:02:44;;;;;;;4.75;2.05;;;14.40;99.90;;;;;;5014556;28;20045;-75
2023/05/16 06:05:10;;;;;;;3.88;2.03;;;14.50;99.90;;;;;;5016073;28;20034;-81
2023/05/16 06:07:35;;;;;;;3.47;2.10;;;14.50;99.90;;;;;;5034962;28;20038;-81
2023/05/16 06:10:03;;;;;;;2.53;2.10;;;14.50;99.90;;;;;;5034709;28;20043;-81
2023/05/16 06:12:29;;;;;;;3.92;2.22;;;14.60;99.90;;;;;;5034750;28;20041;-81
2023/05/16 06:14:55;;;;;;;5.68;2.20;;;14.50;99.90;;;;;;5034302;28;20087;-81
2023/05/16 06:17:21;;;;;;;2.25;1.92;;;14.50;99.90;;;;;;5034135;28;20436;-81
2023/05/16 06:19:46;;;;;;;3.15;2.47;;;14.50;99.90;;;;;;5034182;28;20100;-80
2023/05/16 06:22:12;;;;;;;4.45;2.45;;;14.60;99.90;;;;;;5016831;28;20548;-81
2023/05/16 06:24:37;;;;;;;2.42;2.22;;;14.50;99.90;;;;;;5034370;28;20029;-82
2023/05/16 06:27:03;;;;;;;2.80;2.20;;;14.50;99.90;;;;;;5034752;28;20482;-82
2023/05/16 06:29:29;;;;;;;3.13;2.20;;;14.60;99.90;;;;;;5034681;28;20045;-82
2023/05/16 06:31:54;;;;;;;2.70;2.20;;;14.60;99.90;;;;;;5034622;28;20073;-81
2023/05/16 06:34:26;;;;;;;3.17;2.17;;;14.70;99.90;;;;;;5034301;28;20033;-82
2023/05/16 06:36:52;;;;;;;5.43;2.60;;;14.70;99.90;;;;;;5017122;28;20464;-82
2023/05/16 06:39:17;;;;;;;2.40;2.22;;;14.80;99.90;;;;;;5034292;28;20039;-81
2023/05/16 06:41:44;;;;;;;4.95;2.28;;;14.80;99.90;;;;;;5034105;28;20039;-81
2023/05/16 06:44:10;;;;;;;3.95;2.30;;;14.90;99.90;;;;;;5034155;28;20032;-82
2023/05/16 06:46:37;;;;;;;1.98;1.88;;;15.00;99.90;;;;;;5016563;28;20033;-81
2023/05/16 06:49:03;;;;;;;3.17;2.13;;;15.00;99.90;;;;;;5016915;28;20488;-82
2023/05/16 06:51:29;;;;;;;2.63;2.30;;;15.00;99.90;;;;;;5033767;28;20029;-81
2023/05/16 06:53:55;;;;;;;4.10;2.67;;;15.00;99.90;;;;;;5034164;28;20025;-81
2023/05/16 06:56:21;;;;;;;4.93;2.95;;;15.10;99.90;;;;;;5034409;28;20362;-81
2023/05/16 06:58:48;;;;;;;3.05;2.50;;;15.00;99.90;;;;;;5033907;28;20021;-80
2023/05/16 07:01:14;;;;;;;4.05;2.65;;;15.00;99.90;;;;;;5033802;28;20034;-80
2023/05/16 07:03:40;;;;;;;3.78;3.10;;;14.90;99.90;;;;;;5033693;28;20022;-80
2023/05/16 07:06:06;;;;;;;5.60;2.85;;;14.90;99.90;;;;;;5033701;28;20484;-80
2023/05/16 07:08:32;;;;;;;7.40;2.90;;;14.80;99.90;;;;;;5033933;28;20119;-80
2023/05/16 07:10:57;;;;;;;3.75;2.92;;;14.70;99.90;;;;;;5015890;28;20057;-81
2023/05/16 07:13:23;;;;;;;3.90;2.72;;;14.70;99.90;;;;;;5033964;28;20037;-81
2023/05/16 07:15:48;;;;;;;4.93;2.83;;;14.60;99.90;;;;;;5033384;28;20046;-81
2023/05/16 07:18:14;;;;;;;4.40;2.80;;;14.60;99.90;;;;;;5034030;28;20037;-81
2023/05/16 07:20:40;;;;;;;3.22;2.42;;;14.60;99.90;;;;;;5033467;28;20493;-81
2023/05/16 07:23:06;;;;;;;3.38;2.80;;;14.50;99.90;;;;;;5033848;28;20041;-81
2023/05/16 07:25:31;;;;;;;3.90;3.17;;;14.50;99.90;;;;;;5033886;28;20373;-76
2023/05/16 07:27:58;;;;;;;4.13;2.60;;;14.50;99.90;;;;;;5015762;28;20436;-75
2023/05/16 07:30:24;;;;;;;6.43;3.08;;;14.50;99.90;;;;;;5015936;28;20073;-75
2023/05/16 07:32:50;;;;;;;5.00;3.28;;;14.50;99.90;;;;;;5033397;28;20500;-75
2023/05/16 07:35:15;;;;;;;5.85;3.17;;;14.40;99.90;;;;;;5033497;28;20026;-75
2023/05/16 07:37:42;;;;;;;8.50;3.42;;;14.30;99.90;;;;;;5033181;28;20108;-75
2023/05/16 07:40:09;;;;;;;3.58;3.08;;;14.30;99.90;;;;;;5033243;28;20033;-76
2023/05/16 07:42:34;;;;;;;5.60;3.22;;;14.30;99.90;;;;;;5015424;28;20064;-75
2023/05/16 07:45:00;;;;;;;7.57;3.10;;;14.20;99.90;;;;;;5015686;28;20073;-76
2023/05/16 07:47:27;;;;;;;3.45;3.13;;;14.20;99.90;;;;;;5033104;28;20061;-76
2023/05/16 07:49:52;;;;;;;4.43;3.15;;;14.20;99.90;;;;;;5015226;28;20034;-76
2023/05/16 07:52:18;;;;;;;3.90;2.78;;;14.10;99.90;;;;;;5032706;28;20048;-76
2023/05/16 07:54:46;;;;;;;5.63;3.92;;;14.20;99.90;;;;;;5033076;28;20033;-75
2023/05/16 07:57:13;;;;;;;6.32;3.30;;;14.10;99.90;;;;;;5033358;28;20025;-74
2023/05/16 07:59:39;;;;;;;5.50;3.70;;;14.10;99.90;;;;;;5033487;28;20121;-75
2023/05/16 08:02:05;;;;;;;3.83;3.42;;;14.00;99.90;;;;;;5032999;28;20073;-75
2023/05/16 08:04:31;;;;;;;5.45;3.85;;;13.90;99.90;;;;;;5018483;28;20056;-74
2023/05/16 08:06:56;;;;;;;4.85;4.07;;;13.90;99.90;;;;;;5018739;28;20029;-74
2023/05/16 08:09:22;;;;;;;4.18;3.78;;;13.90;99.90;;;;;;5036466;28;20492;-74
2023/05/16 08:11:48;;;;;;;6.28;3.72;;;13.90;99.90;;;;;;5036337;28;20053;-75
2023/05/16 08:14:13;;;;;;;7.18;4.43;;;13.80;99.90;;;;;;5036725;28;20041;-74
2023/05/16 08:16:39;;;;;;;7.30;3.85;;;13.80;99.90;;;;;;5036331;28;20034;-75
2023/05/16 08:19:06;;;;;;;4.55;4.05;;;13.80;99.90;;;;;;5036637;28;20042;-74
2023/05/16 08:21:31;;;;;;;4.95;3.55;;;13.70;99.90;;;;;;5036216;28;20033;-74
2023/05/16 08:23:57;;;;;;;7.25;4.22;;;13.70;99.90;;;;;;5036465;28;20029;-74
2023/05/16 08:26:23;;;;;;;8.15;4.50;;;13.60;99.90;;;;;;5036338;28;20037;-74
2023/05/16 08:28:49;;;;;;;5.60;4.40;;;13.60;99.90;;;;;;5036245;28;20041;-74
2023/05/16 08:31:15;;;;;;;9.70;4.80;;;13.50;99.90;;;;;;5036233;28;20034;-74
2023/05/16 08:33:40;;;;;;;8.40;5.30;;;13.40;99.90;;;;;;5018361;28;20116;-74
2023/05/16 08:36:08;;;;;;;21.20;6.13;;;13.40;99.90;;;;;;5036071;28;20113;-74
2023/05/16 08:38:33;;;;;;;6.40;4.85;;;13.40;99.90;;;;;;5018180;28;20358;-74
2023/05/16 08:40:59;;;;;;;10.40;5.57;;;13.40;99.90;;;;;;5018026;28;20103;-75
2023/05/16 08:43:25;;;;;;;6.07;4.85;;;13.50;99.90;;;;;;5035921;28;20083;-75
2023/05/16 08:45:50;;;;;;;14.70;5.72;;;13.40;99.90;;;;;;5035934;28;20103;-75
2023/05/16 08:48:21;;;;;;;7.65;5.63;;;13.40;99.90;;;;;;5035754;28;20038;-75
2023/05/16 08:50:46;;;;;;;8.60;5.45;;;13.40;99.90;;;;;;5035658;28;20484;-75
2023/05/16 08:53:16;;;;;;;6.88;5.68;;;13.50;99.90;;;;;;5017923;28;20038;-75
2023/05/16 08:55:44;;;;;;;10.07;5.68;;;13.50;99.90;;;;;;5017943;28;20076;-76
2023/05/16 08:58:10;;;;;;;8.68;6.13;;;13.50;99.90;;;;;;5035684;28;20021;-76
2023/05/16 09:00:36;;;;;;;7.85;6.50;;;13.40;99.90;;;;;;5035619;28;20036;-76
2023/05/16 09:03:03;;;;;;;9.65;6.53;;;13.40;99.90;;;;;;5035472;28;20041;-77
2023/05/16 09:05:30;;;;;;;9.68;6.65;;;13.40;99.90;;;;;;5035301;28;20393;-77
2023/05/16 09:07:55;;;;;;;9.85;6.45;;;13.30;99.90;;;;;;5017568;28;20034;-77
2023/05/16 09:10:21;;;;;;;14.95;7.68;;;13.30;99.90;;;;;;5035814;28;20053;-77
2023/05/16 09:12:47;;;;;;;11.05;7.65;;;13.20;99.90;;;;;;5017066;28;20127;-76
2023/05/16 09:15:12;;;;;;;10.90;8.13;;;13.20;99.90;;;;;;5034395;28;20381;-77
2023/05/16 09:17:44;;;;;;;17.60;11.90;;;13.20;99.90;;;;;;5017469;28;20038;-77
2023/05/16 09:20:15;;;;;;;11.25;7.97;;;13.10;99.90;;;;;;5017525;28;20038;-77
2023/05/16 09:22:53;;;;;;;9.52;7.15;;;13.10;99.90;;;;;;5035076;28;20112;-76
2023/05/16 09:25:21;;;;;;;12.68;9.35;;;12.90;99.90;;;;;;5017350;28;20041;-77
2023/05/16 09:27:47;;;;;;;14.07;10.63;;;12.90;99.90;;;;;;5035045;28;20109;-77
2023/05/16 09:30:33;;;;;;;17.35;10.43;;;12.90;99.90;;;;;;5017232;28;20268;-78
2023/05/16 09:32:59;;;;;;;11.15;9.05;;;12.80;99.90;;;;;;5035489;28;20044;-78
2023/05/16 09:35:25;;;;;;;11.13;8.75;;;12.70;99.90;;;;;;5035340;28;20033;-78
2023/05/16 09:37:52;;;;;;;14.98;10.23;;;12.70;99.90;;;;;;5035755;28;20346;-78
2023/05/16 09:40:21;;;;;;;16.58;9.88;;;12.60;99.90;;;;;;5017388;28;20096;-79
2023/05/16 09:42:46;;;;;;;;;;;12.60;99.90;;;;;;5035605;28;20044;-78
2023/05/16 09:45:13;;;;;;;16.48;10.18;;;12.60;99.90;;;;;;5034756;28;19905;-77
2023/05/16 09:47:45;;;;;;;17.52;11.60;;;12.60;99.90;;;;;;5036112;28;20100;-77
2023/05/16 09:50:14;;;;;;;15.77;12.57;;;12.60;99.90;;;;;;5036926;28;20033;-76
2023/05/16 09:52:41;;;;;;;19.75;13.73;;;12.50;99.90;;;;;;5019900;28;20084;-76
2023/05/16 09:55:08;;;;;;;17.45;13.25;;;12.50;99.90;;;;;;5038663;28;20082;-76
2023/05/16 09:57:38;;;;;;;20.05;13.60;;;12.40;99.90;;;;;;5039046;28;20042;-77
2023/05/16 10:00:08;;;;;;;18.30;13.65;;;12.40;99.90;;;;;;5018428;28;20513;-76
2023/05/16 10:02:36;;;;;;;19.02;13.40;;;12.40;99.90;;;;;;5017336;28;20099;-77
2023/05/16 10:05:02;;;;;;;19.52;12.40;;;12.40;99.90;;;;;;5018959;28;20477;-76
2023/05/16 10:07:31;;;;;;;15.77;12.18;;;12.40;99.90;;;;;;5036993;28;20096;-76
2023/05/16 10:09:57;;;;;;;15.35;12.18;;;12.30;99.90;;;;;;5017320;28;20076;-76
2023/05/16 10:12:28;;;;;;;17.55;12.57;;;12.30;99.90;;;;;;5033979;28;20088;-77
2023/05/16 10:14:55;;;;;;;15.55;11.25;;;12.40;99.90;;;;;;5034112;28;20034;-76
2023/05/16 10:17:21;;;;;;;17.63;11.48;;;12.40;99.90;;;;;;5016468;28;20041;-76
2023/05/16 10:19:48;;;;;;;18.75;13.45;;;12.40;99.90;;;;;;5034137;28;20026;-76
2023/05/16 10:22:15;;;;;;;17.27;12.30;;;12.40;99.90;;;;;;5034041;28;20072;-76
2023/05/16 10:24:53;;;;;;;15.65;11.77;;;12.40;99.90;;;;;;5034134;28;20033;-76
2023/05/16 10:27:20;;;;;;;22.27;13.73;;;12.40;99.90;;;;;;5033721;28;20061;-76
2023/05/16 10:29:46;;;;;;;20.13;13.13;;;;;;;;;;5033788;28;20033;-76
2023/05/16 10:32:13;;;;;;;16.77;11.98;;;12.50;99.90;;;;;;5033703;28;20089;-76
2023/05/16 10:34:40;;;;;;;16.52;12.50;;;12.50;99.90;;;;;;5033734;28;20064;-76
2023/05/16 10:37:06;;;;;;;18.48;12.95;;;12.50;99.90;;;;;;5033532;28;20120;-76
2023/05/16 10:39:33;;;;;;;17.80;12.27;;;12.50;99.90;;;;;;5034132;28;20085;-76
2023/05/16 10:41:59;;;;;;;17.02;12.00;;;12.50;99.90;;;;;;5033923;28;20041;-76
2023/05/16 10:44:25;;;;;;;14.10;11.27;;;12.50;99.90;;;;;;5016923;28;20191;-76
2023/05/16 10:46:50;;;;;;;14.00;11.40;;;12.50;99.90;;;;;;5017391;28;20492;-76
2023/05/16 10:49:21;;;;;;;15.00;13.02;;;12.40;99.90;;;;;;5036344;28;20115;-77
2023/05/16 10:52:06;;;;;;;17.02;12.13;;;12.40;99.90;;;;;;5035532;28;20370;-76
2023/05/16 10:54:40;;;;;;;15.40;12.48;;;12.40;99.90;;;;;;5035286;28;20037;-76
2023/05/16 10:57:07;;;;;;;17.27;13.13;;;12.40;99.90;;;;;;5035553;28;20061;-76
2023/05/16 10:59:46;;;;;;;15.45;12.18;;;12.40;99.90;;;;;;5037925;28;20034;-76
2023/05/16 11:02:21;;;;;;;;;;;12.40;99.90;;;;;;5020599;28;20037;-76
2023/05/16 11:04:58;;;;;;;16.48;12.15;;;12.40;99.90;;;;;;5017433;28;19959;-76
2023/05/16 11:07:25;;;;;;;17.77;14.50;;;12.30;99.90;;;;;;5036407;28;20025;-76
2023/05/16 11:10:07;;;;;;;15.68;12.15;;;12.30;99.90;;;;;;5017447;28;20049;-76
2023/05/16 11:12:50;;;;;;;16.30;11.68;;;12.40;99.90;;;;;;5034289;28;20045;-77
2023/05/16 11:15:27;;;;;;;16.67;12.30;;;12.40;99.90;;;;;;5017157;28;20099;-76
2023/05/16 11:18:07;;;;;;;16.60;12.93;;;12.40;99.90;;;;;;5035361;28;20042;-78
2023/05/16 11:20:38;;;;;;;15.57;12.65;;;12.40;99.90;;;;;;5035777;28;20041;-76
2023/05/16 11:23:16;;;;;;;19.50;14.32;;;12.40;99.90;;;;;;5017411;28;20462;-76
2023/05/16 11:25:44;;;;;;;20.05;13.88;;;12.40;99.90;;;;;;5017524;28;20111;-76
2023/05/16 11:28:12;;;;;;;22.80;16.97;;;12.50;99.90;;;;;;5033760;28;20025;-76
2023/05/16 11:30:46;;;;;;;24.08;15.00;;;12.60;99.90;;;;;;5033396;28;20038;-76
2023/05/16 11:33:12;;;;;;;20.08;15.15;;;12.70;99.90;;;;;;5033750;28;20473;-76
2023/05/16 11:35:37;;;;;;;21.20;15.93;;;12.80;99.90;;;;;;5033384;28;20049;-76
2023/05/16 11:38:03;;;;;;;23.88;15.73;;;12.80;99.90;;;;;;5017124;28;20060;-76
2023/05/16 11:40:29;;;;;;;21.50;17.13;;;12.90;99.90;;;;;;5037160;28;20112;-75
2023/05/16 11:42:59;;;;;;;18.20;13.88;;;12.90;99.90;;;;;;5037219;28;20111;-77
2023/05/16 11:45:25;;;;;;;16.55;12.98;;;12.90;99.90;;;;;;5019970;28;20095;-77
2023/05/16 11:47:51;;;;;;;20.38;14.30;;;12.90;99.90;;;;;;5019592;28;20029;-77
2023/05/16 11:50:24;;;;;;;12.88;10.55;;;12.90;99.90;;;;;;5036870;28;20033;-76
2023/05/16 11:52:52;;;;;;;15.75;12.35;;;12.90;99.90;;;;;;5037398;28;20033;-76
2023/05/16 11:55:23;;;;;;;16.67;13.15;;;12.80;99.90;;;;;;5037361;28;20459;-76
2023/05/16 11:57:50;;;;;;;17.38;13.85;;;12.80;99.90;;;;;;5036891;28;20105;-76
2023/05/16 12:00:18;;;;;;;18.30;13.98;;;13.00;99.90;;;;;;5036640;28;20099;-76
2023/05/16 12:02:46;;;;;;;17.05;13.13;;;13.00;99.90;;;;;;5036717;28;20042;-76
2023/05/16 12:05:13;;;;;;;15.40;13.55;;;13.00;99.90;;;;;;5037068;28;20034;-76
2023/05/16 12:07:40;;;;;;;16.25;13.30;;;12.90;99.90;;;;;;5019355;28;20089;-77
2023/05/16 12:10:07;;;;;;;17.02;12.90;;;12.90;99.90;;;;;;5037423;28;20045;-76
2023/05/16 12:12:37;;;;;;;18.55;14.60;;;12.90;99.90;;;;;;5037361;28;20042;-77
2023/05/16 12:15:05;;;;;;;18.17;14.20;;;12.90;99.90;;;;;;5036936;28;20033;-76
2023/05/16 12:17:35;;;;;;;18.10;13.55;;;12.90;99.90;;;;;;5019128;28;20378;-78
2023/05/16 12:20:04;;;;;;;21.27;15.02;;;12.90;99.90;;;;;;5036351;28;20556;-77
2023/05/16 12:22:30;;;;;;;20.95;14.45;;;12.90;99.90;;;;;;5036486;28;20038;-77
2023/05/16 12:24:58;;;;;;;18.77;15.20;;;13.00;99.90;;;;;;5036571;28;20067;-76
2023/05/16 12:27:25;;;;;;;15.90;14.18;;;13.00;99.90;;;;;;5018589;28;20440;-76
2023/05/16 12:29:51;;;;;;;16.52;14.02;;;13.10;99.90;;;;;;5018957;28;20042;-76
2023/05/16 12:32:20;;;;;;;18.67;15.23;;;13.00;99.90;;;;;;5036453;28;20033;-76
2023/05/16 12:34:50;;;;;;;18.33;14.32;;;13.00;99.90;;;;;;5019391;28;20056;-76
2023/05/16 12:37:17;;;;;;;19.73;15.63;;;13.00;99.90;;;;;;5018551;28;20050;-76
2023/05/16 12:39:45;;;;;;;19.75;16.17;;;13.00;99.90;;;;;;5036895;28;20084;-76
2023/05/16 12:42:12;;;;;;;21.65;16.83;;;13.00;99.90;;;;;;5035981;28;20069;-76
2023/05/16 12:44:38;;;;;;;19.73;15.35;;;13.10;99.90;;;;;;5019638;28;20034;-76